createdAt,value
2023-05-19T00:00:31.822Z,12.03
2023-05-19T00:05:41.121Z,11.63
2023-05-19T00:10:44.649Z,11.68
2023-05-19T00:15:47.564Z,11.68
2023-05-19T00:20:51.524Z,11.36
2023-05-19T00:25:54.428Z,11.46
2023-05-19T00:30:56.800Z,11.49
2023-05-19T00:35:59.503Z,11.57
2023-05-19T00:41:03.524Z,11.28
2023-05-19T00:46:07.616Z,11.20
2023-05-19T00:51:14.894Z,11.36
2023-05-19T00:56:18.836Z,11.52
2023-05-19T01:01:21.992Z,11.58
2023-05-19T01:06:25.847Z,11.72
2023-05-19T01:11:28.757Z,11.56
2023-05-19T01:16:40.692Z,11.73
2023-05-19T01:21:58.509Z,11.57
2023-05-19T01:27:25.526Z,11.52
2023-05-19T01:32:30.204Z,11.54
2023-05-19T01:37:33.702Z,11.60
2023-05-19T01:42:40.288Z,11.48
2023-05-19T01:47:45.622Z,11.49
2023-05-19T01:52:48.529Z,11.59
2023-05-19T01:58:03.022Z,11.62
2023-05-19T02:03:08.952Z,11.85
2023-05-19T02:08:30.763Z,11.79
2023-05-19T02:13:41.520Z,11.94
2023-05-19T02:18:45.810Z,11.91
2023-05-19T02:23:49.059Z,11.76
2023-05-19T02:28:51.884Z,11.83
2023-05-19T02:33:54.693Z,11.93
2023-05-19T02:38:57.153Z,12.01
2023-05-19T02:44:00.293Z,11.91
2023-05-19T02:49:03.038Z,12.05
2023-05-19T02:54:05.873Z,12.07
2023-05-19T02:59:08.709Z,12.15
2023-05-19T03:04:11.579Z,12.08
2023-05-19T03:09:14.816Z,12.21
2023-05-19T03:14:18.955Z,12.28
2023-05-19T03:19:21.776Z,12.26
2023-05-19T03:24:24.621Z,12.36
2023-05-19T03:29:27.264Z,12.37
2023-05-19T03:34:30.347Z,12.38
2023-05-19T03:39:33.856Z,12.59
2023-05-19T03:44:36.668Z,12.85
2023-05-19T03:49:39.691Z,12.78
2023-05-19T03:55:00.716Z,12.95
2023-05-19T04:00:05.495Z,12.75
2023-05-19T04:05:14.528Z,12.72
2023-05-19T04:10:17.229Z,12.56
2023-05-19T04:15:20.001Z,12.79
2023-05-19T04:20:22.935Z,12.99
2023-05-19T04:25:28.491Z,12.89
2023-05-19T04:30:31.475Z,13.31
2023-05-19T04:35:34.826Z,13.29
2023-05-19T04:40:38.227Z,13.48
2023-05-19T04:45:42.812Z,13.79
2023-05-19T04:50:49.386Z,13.92
2023-05-19T04:55:51.990Z,14.39
2023-05-19T05:00:58.931Z,14.89
2023-05-19T05:06:03.592Z,15.18
2023-05-19T05:11:06.831Z,15.79
2023-05-19T05:16:11.606Z,15.94
2023-05-19T05:21:15.264Z,15.89
2023-05-19T05:26:19.886Z,15.77
2023-05-19T05:31:25.256Z,16.04
2023-05-19T05:36:28.399Z,16.48
2023-05-19T05:41:35.579Z,16.77
2023-05-19T05:46:45.341Z,17.06
2023-05-19T05:52:01.906Z,16.71
